createdAt,value
2017-09-25T00:01:03.168Z,39.10
2017-09-25T00:03:30.908Z,38.90
2017-09-25T00:05:58.333Z,39.00
2017-09-25T00:08:25.865Z,38.90
2017-09-25T00:10:53.376Z,38.90
2017-09-25T00:13:21.140Z,38.90
2017-09-25T00:15:48.585Z,38.90
2017-09-25T00:18:16.014Z,38.80
2017-09-25T00:20:43.512Z,39.30
2017-09-25T00:23:10.965Z,38.70
2017-09-25T00:25:38.418Z,39.20
2017-09-25T00:28:05.848Z,39.30
2017-09-25T00:30:33.337Z,39.10
2017-09-25T00:33:00.793Z,39.10
2017-09-25T00:35:28.557Z,39.10
2017-09-25T00:37:56.189Z,39.10
2017-09-25T00:40:23.668Z,39.10
2017-09-25T00:42:51.129Z,39.10
2017-09-25T00:45:18.685Z,39.10
2017-09-25T00:47:46.123Z,39.10
2017-09-25T00:50:13.564Z,39.10
2017-09-25T00:52:52.693Z,38.70
2017-09-25T00:55:28.772Z,39.10
2017-09-25T00:57:56.212Z,39.10
2017-09-25T01:00:35.376Z,39.00
2017-09-25T01:03:14.593Z,38.50
2017-09-25T01:05:53.944Z,39.00
2017-09-25T01:08:21.376Z,39.00
2017-09-25T01:10:48.817Z,39.10
2017-09-25T01:13:16.312Z,38.90
2017-09-25T01:15:43.785Z,39.10
2017-09-25T01:18:11.337Z,38.90
2017-09-25T01:20:38.993Z,39.70
2017-09-25T01:23:06.429Z,39.60
2017-09-25T01:25:33.900Z,39.50
2017-09-25T01:28:01.550Z,39.80
2017-09-25T01:30:28.987Z,39.40
2017-09-25T01:32:56.581Z,39.90
2017-09-25T01:35:24.209Z,39.70
2017-09-25T01:37:51.792Z,39.70
2017-09-25T01:40:19.225Z,39.70
2017-09-25T01:42:46.708Z,39.60
2017-09-25T01:45:14.165Z,39.50
2017-09-25T01:47:41.821Z,39.90
2017-09-25T01:50:09.381Z,40.00
2017-09-25T01:52:36.822Z,39.70
2017-09-25T01:55:04.252Z,40.20
2017-09-25T01:57:31.692Z,40.00
2017-09-25T01:59:59.208Z,39.50
2017-09-25T02:02:26.653Z,39.50
2017-09-25T02:04:54.077Z,39.90
2017-09-25T02:07:21.519Z,39.90
2017-09-25T02:09:49.035Z,40.20
2017-09-25T02:12:16.488Z,40.00
2017-09-25T02:14:44.252Z,40.50
2017-09-25T02:17:11.709Z,40.50
2017-09-25T02:19:39.347Z,40.70
2017-09-25T02:22:06.800Z,40.90
2017-09-25T02:24:34.297Z,40.70
2017-09-25T02:27:01.843Z,40.70
2017-09-25T02:29:29.292Z,40.60
2017-09-25T02:31:56.756Z,40.60
2017-09-25T02:34:24.209Z,40.50
2017-09-25T02:36:51.666Z,40.90
2017-09-25T02:39:19.324Z,41.00
2017-09-25T02:41:46.890Z,40.90
2017-09-25T02:44:14.326Z,41.00
2017-09-25T02:46:41.754Z,40.90
2017-09-25T02:49:09.257Z,41.00
2017-09-25T02:51:36.689Z,40.90
2017-09-25T02:54:04.193Z,40.60
2017-09-25T02:56:31.932Z,40.90
2017-09-25T02:58:59.437Z,41.20
2017-09-25T03:01:27.060Z,41.00
2017-09-25T03:03:54.525Z,41.20
2017-09-25T03:06:22.065Z,41.20
2017-09-25T03:08:49.705Z,41.40
2017-09-25T03:11:17.184Z,41.10
2017-09-25T03:13:44.749Z,40.90
2017-09-25T03:16:12.377Z,41.10
2017-09-25T03:18:39.841Z,41.00
2017-09-25T03:21:07.324Z,40.90
2017-09-25T03:23:34.873Z,40.40
2017-09-25T03:26:02.328Z,40.50
2017-09-25T03:28:29.804Z,41.00
2017-09-25T03:30:57.447Z,40.90
2017-09-25T03:33:24.912Z,41.20
2017-09-25T03:35:52.461Z,40.70
2017-09-25T03:38:20.081Z,41.30
2017-09-25T03:40:48.477Z,42.00
2017-09-25T03:43:15.997Z,42.00
2017-09-25T03:45:43.518Z,41.50
2017-09-25T03:48:10.973Z,41.70
2017-09-25T03:50:38.613Z,41.60
2017-09-25T03:53:06.125Z,41.80
2017-09-25T03:55:33.569Z,41.50
2017-09-25T03:58:01.004Z,41.40
2017-09-25T04:00:28.447Z,40.90
2017-09-25T04:02:55.901Z,41.20
2017-09-25T04:05:23.325Z,40.70
2017-09-25T04:07:51.873Z,41.00
2017-09-25T04:10:19.501Z,41.00
2017-09-25T04:12:46.977Z,41.00
2017-09-25T04:15:14.421Z,41.00
2017-09-25T04:17:41.856Z,41.30
2017-09-25T04:20:10.361Z,41.60
2017-09-25T04:22:37.993Z,41.00
2017-09-25T04:25:05.592Z,41.20
2017-09-25T04:27:33.041Z,42.00
2017-09-25T04:30:00.667Z,41.70
2017-09-25T04:32:28.108Z,41.90
2017-09-25T04:34:56.309Z,42.00
2017-09-25T04:37:23.748Z,41.90
2017-09-25T04:39:51.217Z,42.00
2017-09-25T04:42:18.644Z,41.90
2017-09-25T04:44:46.075Z,42.00
2017-09-25T04:47:13.610Z,42.00
2017-09-25T04:49:41.068Z,42.00
2017-09-25T04:52:08.525Z,42.40
2017-09-25T04:54:35.957Z,42.10
2017-09-25T04:57:04.306Z,42.00
2017-09-25T04:59:31.728Z,42.00
2017-09-25T05:01:59.269Z,42.60
2017-09-25T05:04:26.757Z,42.80
2017-09-25T05:06:54.368Z,42.60
2017-09-25T05:09:21.845Z,42.50
2017-09-25T05:11:49.401Z,42.20
2017-09-25T05:14:16.826Z,42.30
2017-09-25T05:16:44.265Z,42.20
2017-09-25T05:19:11.773Z,42.50
2017-09-25T05:21:39.220Z,43.00
2017-09-25T05:24:06.645Z,42.90
2017-09-25T05:26:34.081Z,43.10
2017-09-25T05:29:01.509Z,43.50
2017-09-25T05:31:28.961Z,43.30
2017-09-25T05:33:56.504Z,43.80
2017-09-25T05:36:24.273Z,44.00
2017-09-25T05:38:51.719Z,44.20
2017-09-25T05:41:19.144Z,44.10
2017-09-25T05:43:46.580Z,44.00
2017-09-25T05:46:14.013Z,44.00
2017-09-25T05:48:41.557Z,44.10
2017-09-25T05:51:08.984Z,44.30
2017-09-25T05:53:36.436Z,44.20
2017-09-25T05:56:03.871Z,43.50
2017-09-25T05:58:31.377Z,43.50
2017-09-25T06:00:59.144Z,44.20
2017-09-25T06:03:26.901Z,44.70
2017-09-25T06:05:54.665Z,44.50
2017-09-25T06:08:22.104Z,44.50
2017-09-25T06:10:49.580Z,45.00
2017-09-25T06:13:17.214Z,44.90
2017-09-25T06:15:44.660Z,44.70
2017-09-25T06:18:12.864Z,44.60
2017-09-25T06:20:40.633Z,44.50
2017-09-25T06:23:08.069Z,44.50
2017-09-25T06:25:35.505Z,45.40
2017-09-25T06:28:03.009Z,45.70
2017-09-25T06:30:30.468Z,45.80
2017-09-25T06:32:58.009Z,45.00
2017-09-25T06:35:25.597Z,45.40
2017-09-25T06:37:53.137Z,46.50
2017-09-25T06:40:20.604Z,46.20
2017-09-25T06:42:48.375Z,45.70
2017-09-25T06:45:15.992Z,45.00
2017-09-25T06:47:43.442Z,45.20
2017-09-25T06:50:11.033Z,45.30
2017-09-25T06:52:38.465Z,45.30
2017-09-25T06:55:05.908Z,45.90
2017-09-25T06:57:33.400Z,45.70
2017-09-25T07:00:00.842Z,44.30
2017-09-25T07:02:28.276Z,45.60
2017-09-25T07:04:55.768Z,42.20
2017-09-25T07:07:23.242Z,43.40
2017-09-25T07:09:50.870Z,44.50
2017-09-25T07:12:18.349Z,44.80
2017-09-25T07:14:45.793Z,49.00
2017-09-25T07:17:13.224Z,49.70
2017-09-25T07:19:40.665Z,50.20
2017-09-25T07:22:08.876Z,48.80
2017-09-25T07:24:36.308Z,48.80
2017-09-25T07:27:03.750Z,49.90
2017-09-25T07:29:31.189Z,45.30
2017-09-25T07:31:58.629Z,47.10
2017-09-25T07:34:26.835Z,47.50
2017-09-25T07:36:55.036Z,45.90
2017-09-25T07:39:22.489Z,45.70
2017-09-25T07:41:49.908Z,46.50
2017-09-25T07:44:18.105Z,45.80
2017-09-25T07:46:45.544Z,45.50
2017-09-25T07:49:12.980Z,44.30
2017-09-25T07:51:40.420Z,43.80
2017-09-25T07:54:07.877Z,43.40
2017-09-25T07:56:35.336Z,41.60
2017-09-25T07:59:02.788Z,44.00
2017-09-25T08:01:30.335Z,44.40
2017-09-25T08:03:57.964Z,46.60
2017-09-25T08:06:25.409Z,46.40
2017-09-25T08:08:53.601Z,47.00
2017-09-25T08:11:21.047Z,47.00
2017-09-25T08:13:48.473Z,45.70
2017-09-25T08:16:15.913Z,45.60
2017-09-25T08:18:43.470Z,43.70
2017-09-25T08:21:11.829Z,44.40
2017-09-25T08:23:39.257Z,42.30
2017-09-25T08:26:06.684Z,42.20
2017-09-25T08:28:34.130Z,41.60
2017-09-25T08:31:01.557Z,41.90
2017-09-25T08:33:29.027Z,42.60
2017-09-25T08:35:56.565Z,41.80
2017-09-25T08:38:24.020Z,40.90
2017-09-25T08:40:51.670Z,41.40
2017-09-25T08:43:19.105Z,41.00
2017-09-25T08:45:46.710Z,40.90
2017-09-25T08:48:14.136Z,40.30
2017-09-25T08:50:41.609Z,40.70
2017-09-25T08:53:09.101Z,40.10
2017-09-25T08:55:36.524Z,39.80
2017-09-25T08:58:03.980Z,39.10
2017-09-25T09:00:31.406Z,39.00
2017-09-25T09:02:58.889Z,37.90
2017-09-25T09:05:26.543Z,37.60
2017-09-25T09:07:54.016Z,37.10
2017-09-25T09:10:21.571Z,37.20
2017-09-25T09:12:49.029Z,36.30
2017-09-25T09:15:16.492Z,35.80
2017-09-25T09:17:43.939Z,35.80
2017-09-25T09:20:11.369Z,34.90
2017-09-25T09:22:38.854Z,35.20
2017-09-25T09:25:06.307Z,35.30
2017-09-25T09:27:33.949Z,35.50
2017-09-25T09:30:01.433Z,35.00
2017-09-25T09:32:28.870Z,34.30
2017-09-25T09:34:56.369Z,33.60
2017-09-25T09:37:23.890Z,32.40
2017-09-25T09:39:51.325Z,33.00
2017-09-25T09:42:18.811Z,31.30
2017-09-25T09:44:46.570Z,31.40
2017-09-25T09:47:14.953Z,32.30
2017-09-25T09:49:42.513Z,32.50
2017-09-25T09:52:10.168Z,30.80
2017-09-25T09:54:37.600Z,30.40
2017-09-25T09:57:05.017Z,30.70
2017-09-25T09:59:32.454Z,30.00
2017-09-25T10:01:59.897Z,28.70
2017-09-25T10:04:27.367Z,27.60
2017-09-25T10:06:54.905Z,28.10
2017-09-25T10:09:22.341Z,27.90
2017-09-25T10:11:49.815Z,26.90
2017-09-25T10:14:17.277Z,28.10
2017-09-25T10:16:44.688Z,28.00
2017-09-25T10:19:12.188Z,27.70
2017-09-25T10:21:39.817Z,24.00
2017-09-25T10:24:07.249Z,25.30
2017-09-25T10:26:35.506Z,23.90
2017-09-25T10:29:03.248Z,24.30
2017-09-25T10:31:30.674Z,24.10
2017-09-25T10:33:58.161Z,24.20
2017-09-25T10:36:25.597Z,25.80
2017-09-25T10:38:53.064Z,25.30
2017-09-25T10:41:20.525Z,22.50
2017-09-25T10:43:48.666Z,23.30
2017-09-25T10:46:16.356Z,22.20
2017-09-25T10:48:43.806Z,20.30
2017-09-25T10:51:11.269Z,21.10
2017-09-25T10:53:38.730Z,21.10
2017-09-25T10:56:06.182Z,19.80
2017-09-25T10:58:33.601Z,20.60
2017-09-25T11:01:01.036Z,21.00
2017-09-25T11:03:28.560Z,19.60
2017-09-25T11:05:56.000Z,19.30
2017-09-25T11:08:23.417Z,19.70
2017-09-25T11:10:50.857Z,20.30
2017-09-25T11:13:18.277Z,19.90
2017-09-25T11:15:45.713Z,18.40
2017-09-25T11:18:13.158Z,15.20
2017-09-25T11:20:40.664Z,14.40
2017-09-25T11:23:08.201Z,16.80
2017-09-25T11:25:36.272Z,17.40
2017-09-25T11:28:03.704Z,14.80
2017-09-25T11:30:31.185Z,16.00
2017-09-25T11:32:58.661Z,14.50
2017-09-25T11:35:26.098Z,14.10
2017-09-25T11:37:53.525Z,15.70
2017-09-25T11:40:21.001Z,15.80
2017-09-25T11:42:48.440Z,16.50
2017-09-25T11:45:15.865Z,16.30
2017-09-25T11:47:43.296Z,15.70
2017-09-25T11:50:10.724Z,15.60
2017-09-25T11:52:38.284Z,15.70
2017-09-25T11:55:06.049Z,15.00
2017-09-25T11:57:33.504Z,15.30
2017-09-25T12:00:00.966Z,14.60
2017-09-25T12:02:28.398Z,14.70
2017-09-25T12:04:55.816Z,14.00
2017-09-25T12:07:23.248Z,14.10
2017-09-25T12:09:50.697Z,11.80
2017-09-25T12:12:18.257Z,11.60
2017-09-25T12:14:45.689Z,12.80
2017-09-25T12:17:13.117Z,12.10
2017-09-25T12:19:40.537Z,13.10
2017-09-25T12:22:08.068Z,10.80
2017-09-25T12:24:35.533Z,9.30
2017-09-25T12:27:03.170Z,9.30
2017-09-25T12:29:30.669Z,10.20
2017-09-25T12:31:58.205Z,11.20
2017-09-25T12:34:25.661Z,11.10
2017-09-25T12:36:53.101Z,10.40
2017-09-25T12:39:20.533Z,12.40
2017-09-25T12:41:47.952Z,11.80
2017-09-25T12:44:15.405Z,9.50
2017-09-25T12:46:42.940Z,10.60
2017-09-25T12:49:10.396Z,7.20
2017-09-25T12:51:37.852Z,7.50
2017-09-25T12:54:05.285Z,6.70
2017-09-25T12:56:32.769Z,7.00
2017-09-25T12:59:00.201Z,8.00
2017-09-25T13:01:27.653Z,5.70
2017-09-25T13:03:55.050Z,4.30
2017-09-25T13:06:22.608Z,3.60
2017-09-25T13:08:50.050Z,1.10
2017-09-25T13:11:17.481Z,1.00
2017-09-25T13:13:44.957Z,1.00
2017-09-25T13:16:12.418Z,1.00
2017-09-25T13:18:39.840Z,1.00
2017-09-25T13:21:07.277Z,1.00
2017-09-25T13:23:34.690Z,1.00
2017-09-25T13:26:02.183Z,1.00
2017-09-25T13:28:29.596Z,1.00
2017-09-25T13:30:57.070Z,1.00
2017-09-25T13:33:24.517Z,1.00
2017-09-25T13:35:52.054Z,1.00
2017-09-25T13:38:19.473Z,1.00
2017-09-25T13:40:47.903Z,1.00
2017-09-25T13:43:15.318Z,1.00
2017-09-25T13:45:42.800Z,1.00
2017-09-25T13:48:10.224Z,1.00
2017-09-25T13:50:37.725Z,1.00
2017-09-25T13:53:05.143Z,1.00
2017-09-25T13:55:32.578Z,1.00
2017-09-25T13:57:59.997Z,1.00
2017-09-25T14:03:00.541Z,1.00
2017-09-25T14:05:27.972Z,1.00
2017-09-25T14:07:55.766Z,1.00
2017-09-25T14:10:23.200Z,1.00
2017-09-25T14:12:50.614Z,1.00
2017-09-25T14:15:18.042Z,1.00
2017-09-25T14:17:45.584Z,1.00
2017-09-25T14:20:13.001Z,1.00
2017-09-25T14:22:40.438Z,1.00
2017-09-25T14:25:07.863Z,1.00
2017-09-25T14:27:35.325Z,1.00
2017-09-25T14:30:02.741Z,1.40
2017-09-25T14:32:30.320Z,1.90
2017-09-25T14:34:57.741Z,1.00
2017-09-25T14:37:25.193Z,2.20
2017-09-25T14:39:52.693Z,3.60
2017-09-25T14:42:20.131Z,3.10
2017-09-25T14:44:47.541Z,3.40
2017-09-25T14:47:14.974Z,4.00
2017-09-25T14:49:42.513Z,4.60
2017-09-25T14:52:09.938Z,4.90
2017-09-25T15:03:15.943Z,5.90
2017-09-25T15:05:43.352Z,4.90
2017-09-25T15:08:10.799Z,5.20
2017-09-25T15:10:38.224Z,5.50
2017-09-25T15:13:05.744Z,4.70
2017-09-25T15:15:33.150Z,4.60
2017-09-25T15:18:00.569Z,4.80
2017-09-25T15:20:28.986Z,4.30
2017-09-25T15:22:56.491Z,4.20
2017-09-25T15:25:23.913Z,4.30
2017-09-25T15:27:51.456Z,4.70
2017-09-25T15:30:18.867Z,5.20
2017-09-25T15:32:46.286Z,5.00
2017-09-25T15:35:13.715Z,5.30
2017-09-25T15:37:41.253Z,5.40
2017-09-25T15:40:08.736Z,5.70
2017-09-25T15:42:36.192Z,6.60
2017-09-25T15:45:03.624Z,7.20
2017-09-25T15:47:31.104Z,7.10
2017-09-25T15:49:58.511Z,7.60
2017-09-25T15:52:26.006Z,8.00
2017-09-25T15:54:53.427Z,8.40
2017-09-25T15:57:20.853Z,8.90
2017-09-25T15:59:48.297Z,8.80
2017-09-25T16:02:15.743Z,9.20
2017-09-25T16:04:43.233Z,9.60
2017-09-25T16:07:11.231Z,10.10
2017-09-25T16:09:39.621Z,9.70
2017-09-25T16:12:07.804Z,9.30
2017-09-25T16:14:35.272Z,9.20
2017-09-25T16:17:02.687Z,9.30
2017-09-25T16:19:30.189Z,9.90
2017-09-25T16:21:57.600Z,9.90
2017-09-25T16:24:25.101Z,9.80
2017-09-25T16:26:52.511Z,9.70
2017-09-25T16:29:20.012Z,9.60
2017-09-25T16:31:47.423Z,10.10
2017-09-25T16:34:14.908Z,10.40
2017-09-25T16:36:42.380Z,11.00
2017-09-25T16:39:09.808Z,11.10
2017-09-25T16:41:37.225Z,11.10
2017-09-25T16:44:04.678Z,11.20
2017-09-25T16:46:32.200Z,11.40
2017-09-25T16:48:59.663Z,11.60
2017-09-25T16:51:27.121Z,12.00
2017-09-25T16:53:54.547Z,12.80
2017-09-25T16:56:21.976Z,12.90
2017-09-25T16:58:49.394Z,13.50
2017-09-25T17:01:16.853Z,14.10
2017-09-25T17:03:44.311Z,14.40
2017-09-25T17:06:11.726Z,14.70
2017-09-25T17:08:39.311Z,15.10
2017-09-25T17:11:06.720Z,15.60
2017-09-25T17:13:34.138Z,16.10
2017-09-25T17:16:01.684Z,16.00
2017-09-25T17:18:29.112Z,16.00
2017-09-25T17:20:56.523Z,16.20
2017-09-25T17:23:23.963Z,16.40
2017-09-25T17:25:51.380Z,16.90
2017-09-25T17:28:18.961Z,17.10
2017-09-25T17:30:46.371Z,17.20
2017-09-25T17:33:13.799Z,17.60
2017-09-25T17:35:41.333Z,17.40
2017-09-25T17:38:08.748Z,17.70
2017-09-25T17:40:36.187Z,18.00
2017-09-25T17:43:03.743Z,18.50
2017-09-25T17:45:31.465Z,18.70
2017-09-25T17:47:58.892Z,19.10
2017-09-25T17:50:26.372Z,19.20
2017-09-25T17:52:53.796Z,19.30
2017-09-25T17:55:21.233Z,19.60
2017-09-25T17:57:48.666Z,20.10
2017-09-25T18:00:16.206Z,20.00
2017-09-25T18:02:43.659Z,20.30
2017-09-25T18:05:11.091Z,20.50
2017-09-25T18:07:38.592Z,20.60
2017-09-25T18:10:06.333Z,20.90
2017-09-25T18:12:33.789Z,21.20
2017-09-25T18:15:01.222Z,21.60
2017-09-25T18:17:28.709Z,21.80
2017-09-25T18:19:56.131Z,22.30
2017-09-25T18:22:23.630Z,22.30
2017-09-25T18:24:51.076Z,22.20
2017-09-25T18:27:18.489Z,22.40
2017-09-25T18:29:45.911Z,22.80
2017-09-25T18:32:13.455Z,22.80
2017-09-25T18:34:40.904Z,22.50
2017-09-25T18:37:08.709Z,22.30
2017-09-25T18:39:36.425Z,22.70
2017-09-25T18:42:03.844Z,23.00
2017-09-25T18:44:31.281Z,23.30
2017-09-25T18:46:58.785Z,23.30
2017-09-25T18:49:26.260Z,23.40
2017-09-25T18:51:53.711Z,23.70
2017-09-25T18:54:21.342Z,23.50
2017-09-25T18:56:48.921Z,23.50
2017-09-25T18:59:16.373Z,24.00
2017-09-25T19:01:43.783Z,23.40
2017-09-25T19:04:11.292Z,23.20
2017-09-25T19:06:38.718Z,23.60
2017-09-25T19:09:06.141Z,23.40
2017-09-25T19:11:33.651Z,23.50
2017-09-25T19:14:01.114Z,23.40
2017-09-25T19:16:28.545Z,23.30
2017-09-25T19:18:55.971Z,23.40
2017-09-25T19:21:23.408Z,23.50
2017-09-25T19:23:50.838Z,24.00
2017-09-25T19:26:18.401Z,23.90
2017-09-25T19:28:45.813Z,24.20
2017-09-25T19:31:14.126Z,24.20
2017-09-25T19:33:41.539Z,24.10
2017-09-25T19:36:09.740Z,24.60
2017-09-25T19:38:37.158Z,24.50
2017-09-25T19:41:04.608Z,24.60
2017-09-25T19:43:32.129Z,24.90
2017-09-25T19:45:59.560Z,25.00
2017-09-25T19:48:41.856Z,25.10
2017-09-25T19:51:11.913Z,25.00
2017-09-25T19:53:39.380Z,25.10
2017-09-25T19:59:07.331Z,25.20
2017-09-25T20:01:34.875Z,25.70
2017-09-25T20:04:02.337Z,25.70
2017-09-25T20:06:29.835Z,25.70
2017-09-25T20:08:57.270Z,25.90
2017-09-25T20:11:24.745Z,25.90
2017-09-25T20:13:54.824Z,26.00
2017-09-25T20:16:37.263Z,26.20
2017-09-25T20:19:04.892Z,26.30
2017-09-25T20:21:32.467Z,26.60
2017-09-25T20:23:59.884Z,27.00
2017-09-25T20:26:27.317Z,26.90
2017-09-25T20:28:54.741Z,27.00
2017-09-25T20:31:22.217Z,27.40
2017-09-25T20:33:49.755Z,27.60
2017-09-25T20:36:17.187Z,27.40
2017-09-25T20:38:44.604Z,27.60
2017-09-25T20:41:24.722Z,27.90
2017-09-25T20:43:52.133Z,28.10
2017-09-25T20:46:19.552Z,28.10
2017-09-25T20:48:47.088Z,28.00
2017-09-25T20:51:14.508Z,28.10
2017-09-25T20:53:41.940Z,28.20
2017-09-25T20:56:09.453Z,28.40
2017-09-25T20:58:36.894Z,28.40
2017-09-25T21:01:04.316Z,28.40
2017-09-25T21:03:31.767Z,28.40
2017-09-25T21:05:59.179Z,28.40
2017-09-25T21:08:26.646Z,28.60
2017-09-25T21:10:55.024Z,28.90
2017-09-25T21:13:22.525Z,28.90
2017-09-25T21:15:49.943Z,29.00
2017-09-25T21:18:17.431Z,29.10
2017-09-25T21:20:44.879Z,29.20
2017-09-25T21:23:12.278Z,29.20
2017-09-25T21:25:39.717Z,29.60
2017-09-25T21:28:07.903Z,29.60
2017-09-25T21:30:35.340Z,29.50
2017-09-25T21:33:02.767Z,29.20
2017-09-25T21:35:30.203Z,29.20
2017-09-25T21:37:57.627Z,29.20
2017-09-25T21:40:25.091Z,29.00
2017-09-25T21:42:52.541Z,29.30
2017-09-25T21:45:19.951Z,29.10
2017-09-25T21:47:47.374Z,29.00
2017-09-25T21:50:15.028Z,29.40
2017-09-25T21:52:42.452Z,29.50
2017-09-25T21:55:09.948Z,29.50
2017-09-25T21:57:37.374Z,29.80
2017-09-25T22:00:04.799Z,29.50
2017-09-25T22:02:32.215Z,29.60
2017-09-25T22:04:59.772Z,29.60
2017-09-25T22:07:27.216Z,29.90
2017-09-25T22:09:54.651Z,30.40
2017-09-25T22:12:22.070Z,30.00
2017-09-25T22:14:49.589Z,30.30
2017-09-25T22:17:17.014Z,30.60
2017-09-25T22:19:44.448Z,30.20
2017-09-25T22:22:11.864Z,30.50
2017-09-25T22:24:39.403Z,30.60
2017-09-25T22:27:06.882Z,31.00
2017-09-25T22:29:34.320Z,31.30
2017-09-25T22:32:01.740Z,31.90
2017-09-25T22:34:29.170Z,31.70
2017-09-25T22:36:56.588Z,31.80
2017-09-25T22:39:24.028Z,31.20
2017-09-25T22:41:51.527Z,30.20
2017-09-25T22:44:23.436Z,31.70
2017-09-25T22:46:51.031Z,31.70
2017-09-25T22:49:18.453Z,31.70
2017-09-25T22:51:46.658Z,31.80
2017-09-25T22:54:14.071Z,31.70
2017-09-25T22:56:41.512Z,31.60
2017-09-25T22:59:08.923Z,31.60
2017-09-25T23:01:36.397Z,31.90
2017-09-25T23:04:22.476Z,32.30
2017-09-25T23:06:50.040Z,32.70
2017-09-25T23:22:39.382Z,33.60
2017-09-25T23:25:06.819Z,33.40
2017-09-25T23:27:34.239Z,33.60
2017-09-25T23:30:18.512Z,33.60
2017-09-25T23:32:46.898Z,33.50
2017-09-25T23:35:14.359Z,33.50
2017-09-25T23:37:41.818Z,33.60
2017-09-25T23:40:09.393Z,34.00
2017-09-25T23:42:36.849Z,33.90
2017-09-25T23:45:04.271Z,34.00
2017-09-25T23:47:31.768Z,33.80
2017-09-25T23:49:59.182Z,33.70
2017-09-25T23:52:26.615Z,34.30
2017-09-25T23:54:54.035Z,33.90
2017-09-25T23:57:21.467Z,33.90
2017-09-25T23:59:49.039Z,34.10
